M I D A S
Marine Information and Data Acquisition System
Tripno 1240 of the Zeeleeuw from 2007-03-27 08:20:43 to 2007-03-27 14:35:07
Back to CruiseResearch ActivitiesStationsMapUnderway DataData graphs

EquipmentUnitsComment
TimeDGPSUTC
LatitudeDGPSDM.mWGS84
LongitudeDGPSDM.mWGS84
TemperatureSBE03/SBE38deg celciusITS90
ConductivitySBE21S/mITS90
SalinitySBE21 Practical Salinity Units
ChlorophylAChelsea fluorimeterg/lCalibrated in Aceton
Missing or incorrect values are displayed as -999
Sea surface data collected by the RV Zeeleeuw from 2007-03-27 07:28:17 to 2007-03-27 14:44:08
Time Latitude Longitude Temperature Conductivity Salinity ChlorophylA
2007-03-27 07:29:23 51°13.602 2°56.1 16.4684 0.053668 0.351288 -2.871232
2007-03-27 07:30:23 51°13.602 2°56.099 16.4279 0.053771 0.35183 -2.871232
2007-03-27 07:31:22 51°13.602 2°56.1 16.395 0.053771 0.351649 -2.871232
2007-03-27 07:32:23 51°13.603 2°56.1 16.3873 0.053771 0.351425 -2.871232
2007-03-27 07:33:23 51°13.603 2°56.1 16.3826 0.053874 0.351897 -2.871232
2007-03-27 07:34:23 51°13.603 2°56.1 16.3956 0.053874 0.351724 -2.871232
2007-03-27 07:35:23 51°13.603 2°56.099 16.3832 0.053874 0.351552 -2.871232
2007-03-27 07:36:23 51°13.602 2°56.099 16.3723 0.053977 0.352049 -2.871232
2007-03-27 07:37:23 51°13.603 2°56.099 16.3626 0.053977 0.351869 -2.871232
2007-03-27 07:38:23 51°13.603 2°56.099 16.3622 0.053977 0.35168 -2.871232
2007-03-27 07:39:23 51°13.602 2°56.099 16.3668 0.054079 0.35221 -2.871232
2007-03-27 07:40:23 51°13.602 2°56.099 16.3351 0.054079 0.352004 -2.871232
2007-03-27 07:41:23 51°13.602 2°56.1 16.3428 0.054182 0.352508 -2.871232
2007-03-27 07:42:22 51°13.602 2°56.1 16.3354 0.054182 0.352311 -2.871232
2007-03-27 07:43:23 51°13.602 2°56.1 16.3419 0.054182 0.352131 -2.871232
2007-03-27 07:44:22 51°13.602 2°56.1 16.3339 0.054285 0.352625 -2.871232
2007-03-27 07:45:23 51°13.602 2°56.1 16.3425 0.054285 0.352437 -2.871232
2007-03-27 07:46:23 51°13.603 2°56.1 16.3323 0.054285 0.352214 -2.871232
2007-03-27 07:47:22 51°13.603 2°56.1 16.3389 0.054388 0.352734 -2.871232
2007-03-27 07:48:23 51°13.603 2°56.1 16.3597 0.054388 0.352554 -2.871232
2007-03-27 07:49:22 51°13.603 2°56.1 16.3456 0.054388 0.352383 -2.871232
2007-03-27 07:50:20 51°13.604 2°56.1 16.3542 0.054491 0.352919 -2.871232
2007-03-27 07:51:20 51°13.603 2°56.1 16.3538 0.054491 0.352748 -2.871232
2007-03-27 07:52:20 51°13.603 2°56.1 16.3619 0.054491 0.352594 -2.871232
2007-03-27 07:53:22 51°13.603 2°56.1 16.36 0.054594 0.353104 -2.871232
2007-03-27 07:54:22 51°13.603 2°56.1 16.3598 0.054594 0.352933 -2.871232
2007-03-27 07:55:21 51°13.603 2°56.1 16.3684 0.054594 0.352771 -2.871232
2007-03-27 07:56:21 51°13.602 2°56.101 16.3858 0.054594 0.352601 -2.871232
2007-03-27 07:57:20 51°13.602 2°56.1 16.3934 0.054697 0.353109 -2.871232
2007-03-27 07:58:23 51°13.602 2°56.101 16.379 0.054697 0.352939 -2.871232
2007-03-27 07:59:22 51°13.602 2°56.1 16.3857 0.054697 0.352769 -2.871232
2007-03-27 08:00:21 51°13.602 2°56.101 16.4023 0.0548 0.353293 -2.871232
2007-03-27 08:01:21 51°13.602 2°56.101 16.4118 0.0548 0.353132 -2.871232
2007-03-27 08:02:20 51°13.602 2°56.101 16.3962 0.0548 0.35297 -2.871232
2007-03-27 08:03:20 51°13.602 2°56.101 16.4005 0.054903 0.353486 -2.871232
2007-03-27 08:04:19 51°13.602 2°56.101 16.4064 0.054903 0.353307 -2.871232
2007-03-27 08:05:20 51°13.602 2°56.101 16.4134 0.055314 0.351206 -2.871232
2007-03-27 08:06:19 51°13.597 2°56.099 16.4135 0.05552 0.345372 -2.871232
2007-03-27 08:07:19 51°13.598 2°56.099 16.4235 0.056034 0.346251 -2.871232
2007-03-27 08:08:21 51°13.599 2°56.1 16.4248 0.056446 0.348601 -2.871232
2007-03-27 08:09:20 51°13.599 2°56.099 16.4233 0.056652 0.350035 -2.871232
2007-03-27 08:10:21 51°13.599 2°56.099 16.4001 0.056858 0.351405 -2.871232
2007-03-27 08:11:23 51°13.602 2°56.1 16.3888 0.056961 0.351853 -2.871232
2007-03-27 08:12:22 51°13.603 2°56.1 16.4059 0.056961 0.351765 -2.871232
2007-03-27 08:13:22 51°13.6 2°56.099 16.429 0.057064 0.352333 -2.871232
2007-03-27 08:14:22 51°13.602 2°56.1 16.4265 0.057064 0.352236 -2.871232
2007-03-27 08:15:21 51°13.602 2°56.1 16.4418 0.057167 0.352796 -2.871232
2007-03-27 08:16:21 51°13.599 2°56.099 16.4673 0.057167 0.352675 -2.871232
2007-03-27 08:17:20 51°13.601 2°56.1 16.4567 0.057167 0.352578 -2.871232
2007-03-27 08:18:21 51°13.6 2°56.1 16.4668 0.057269 0.353138 -2.871232
2007-03-27 08:19:19 51°13.601 2°56.1 16.4748 0.057269 0.353049 -2.871232
2007-03-27 08:20:19 51°13.601 2°56.1 16.4788 0.057269 0.352944 -2.871232
2007-03-27 08:21:19 51°13.604 2°56.092 16.3824 0.057269 0.352824 -2.871232
2007-03-27 08:22:22 51°13.623 2°56.02 16.5329 0.057269 0.352767 -2.871232
2007-03-27 08:23:23 51°13.655 2°55.914 16.5329 0.057269 0.352614 -2.871232
2007-03-27 08:24:22 51°13.688 2°55.817 16.5306 0.057269 0.35251 -2.871232
2007-03-27 08:25:21 51°13.705 2°55.742 16.5176 0.057372 0.35306 -2.871232
2007-03-27 08:26:19 51°13.709 2°55.713 16.5561 0.057372 0.35298 -2.871232
2007-03-27 08:27:19 51°13.722 2°55.712 16.5653 0.057372 0.352867 -2.871232
2007-03-27 08:28:19 51°13.761 2°55.69 16.5936 0.057372 0.352763 -2.871232
2007-03-27 08:29:19 51°13.849 2°55.618 16.4684 0.057475 0.353304 -2.871232
2007-03-27 08:30:19 51°13.971 2°55.528 16.4829 0.057475 0.353192 -2.871232
2007-03-27 08:31:20 51°14.103 2°55.432 16.6219 0.057475 0.353119 -2.871232
2007-03-27 08:32:21 51°14.232 2°55.309 16.6461 0.057475 0.353031 -2.871232
2007-03-27 08:33:19 51°14.351 2°55.089 16.4315 0.057475 0.352863 -2.871232
2007-03-27 08:34:19 51°14.477 2°54.801 16.2234 0.057578 0.353484 -2.871232
2007-03-27 08:35:19 51°14.583 2°54.493 16.0419 0.057578 0.353395 -2.871232
2007-03-27 08:36:19 51°14.644 2°54.17 16.0605 0.057578 0.353259 -2.871232
2007-03-27 08:37:20 51°14.668 2°53.829 16.0409 0.057578 0.353179 -2.871232
2007-03-27 08:38:19 51°14.692 2°53.498 16.0382 0.057578 0.353074 -2.871232
2007-03-27 08:39:19 51°14.719 2°53.156 16.0243 0.057681 0.353614 -2.871232
2007-03-27 08:40:19 51°14.748 2°52.811 15.9985 0.057681 0.353526 -2.871232
2007-03-27 08:41:19 51°14.777 2°52.464 16.0008 0.057681 0.353422 -2.871232
2007-03-27 08:42:19 51°14.808 2°52.119 15.9569 0.057681 0.353302 -2.871232
2007-03-27 08:43:19 51°14.839 2°51.775 15.9628 0.057681 0.353238 -2.871232
2007-03-27 08:44:19 51°14.872 2°51.431 15.9622 0.057681 0.353142 -2.871232
2007-03-27 08:45:19 51°14.941 2°51.099 15.9649 0.057784 0.353705 -2.871232
2007-03-27 08:46:19 51°15.018 2°50.771 15.9734 0.057784 0.353633 -2.871232
2007-03-27 08:47:19 51°15.091 2°50.441 15.9582 0.057784 0.353545 -2.871232
2007-03-27 08:48:19 51°15.164 2°50.115 15.9669 0.057784 0.353457 -2.871232
2007-03-27 08:49:19 51°15.234 2°49.787 15.9471 0.057784 0.353369 -2.871232
2007-03-27 08:50:19 51°15.305 2°49.459 15.9829 0.057887 0.353916 -2.871232
2007-03-27 08:51:19 51°15.377 2°49.134 15.985 0.057887 0.353852 -2.871232
2007-03-27 08:52:19 51°15.448 2°48.808 15.9973 0.057887 0.353708 -2.871232
2007-03-27 08:53:19 51°15.515 2°48.482 16.0079 0.057887 0.35362 -2.871232
2007-03-27 08:54:19 51°15.578 2°48.15 16.0023 0.05799 0.354206 -2.871232
2007-03-27 08:55:19 51°15.627 2°47.812 16.0051 0.05799 0.354134 -2.871232
2007-03-27 08:56:19 51°15.661 2°47.471 16.0246 0.05799 0.354022 -2.871232
2007-03-27 08:57:19 51°15.691 2°47.131 16.0459 0.05799 0.353966 -2.871232
2007-03-27 08:58:19 51°15.721 2°46.793 16.0216 0.05799 0.35387 -2.871232
2007-03-27 08:59:19 51°15.749 2°46.455 16.0691 0.05799 0.353798 -2.871232
2007-03-27 09:00:19 51°15.823 2°46.135 16.0694 0.05799 0.353711 -2.871232
2007-03-27 09:01:19 51°15.934 2°45.836 16.0693 0.058093 0.354343 -2.871232
2007-03-27 09:02:19 51°16.046 2°45.538 16.0644 0.058093 0.354168 -2.871232
2007-03-27 09:03:19 51°16.164 2°45.243 16.0766 0.058093 0.354152 -2.871232
2007-03-27 09:04:19 51°16.294 2°44.957 16.0887 0.058093 0.354064 -2.871232
2007-03-27 09:05:19 51°16.424 2°44.67 16.1015 0.058093 0.354 -2.871232
2007-03-27 09:06:19 51°16.56 2°44.386 16.1189 0.058093 0.353921 -2.871232
2007-03-27 09:07:19 51°16.702 2°44.11 16.1188 0.058196 0.354513 -2.871232
2007-03-27 09:08:19 51°16.839 2°43.833 16.1404 0.058196 0.354441 -2.871232
2007-03-27 09:09:19 51°16.975 2°43.56 16.1509 0.058196 0.354377 -2.871232
2007-03-27 09:10:19 51°17.111 2°43.286 16.1645 0.058196 0.354321 -2.871232
2007-03-27 09:11:19 51°17.247 2°43.009 16.1854 0.058196 0.354266 -2.871232
2007-03-27 09:12:19 51°17.383 2°42.732 16.1941 0.058196 0.35421 -2.871232
2007-03-27 09:13:19 51°17.526 2°42.458 16.1979 0.058196 0.354162 -2.871232
2007-03-27 09:14:19 51°17.67 2°42.183 16.2131 0.058298 0.354761 -2.871232
2007-03-27 09:15:19 51°17.814 2°41.908 16.2321 0.058298 0.354714 -2.871232
2007-03-27 09:16:19 51°17.959 2°41.63 16.2204 0.058298 0.354706 -2.871232
2007-03-27 09:17:19 51°18.098 2°41.345 16.243 0.058298 0.354586 -2.871232
2007-03-27 09:18:19 51°18.236 2°41.065 16.2548 0.058298 0.354554 -2.871232
2007-03-27 09:19:19 51°18.375 2°40.791 16.265 0.058298 0.354498 -2.871232
2007-03-27 09:20:19 51°18.513 2°40.516 16.2756 0.058298 0.354451 -2.871232
2007-03-27 09:21:19 51°18.652 2°40.243 16.3026 0.058298 0.354403 -2.871232
2007-03-27 09:22:19 51°18.793 2°39.967 16.3217 0.058298 0.354347 -2.871232
2007-03-27 09:23:19 51°18.936 2°39.692 16.3179 0.058401 0.354946 -2.871232
2007-03-27 09:24:19 51°19.081 2°39.418 16.3347 0.058401 0.354906 -2.871232
2007-03-27 09:25:19 51°19.224 2°39.142 16.3281 0.058401 0.354866 -2.871232
2007-03-27 09:26:19 51°19.368 2°38.869 16.3513 0.058401 0.354819 -2.871232
2007-03-27 09:27:19 51°19.514 2°38.593 16.3618 0.058401 0.354779 -2.871232
2007-03-27 09:28:19 51°19.664 2°38.328 16.3806 0.058401 0.354723 -2.871232
2007-03-27 09:29:19 51°19.823 2°38.077 16.3767 0.058401 0.354691 -2.871232
2007-03-27 09:30:19 51°19.98 2°37.824 16.3943 0.058401 0.354652 -2.871232
2007-03-27 09:31:19 51°20.125 2°37.559 16.4197 0.058401 0.354612 -2.871232
2007-03-27 09:32:19 51°20.221 2°37.345 16.4884 0.058504 0.355234 -2.871232
2007-03-27 09:33:19 51°20.199 2°37.238 16.5185 0.058504 0.355186 -2.871232
2007-03-27 09:34:19 51°20.169 2°37.148 16.5386 0.058504 0.35513 -2.871232
2007-03-27 09:35:19 51°20.143 2°37.059 16.5804 0.058504 0.355098 -2.871232
2007-03-27 09:36:19 51°20.119 2°36.988 16.6081 0.058504 0.355043 -2.871232
2007-03-27 09:37:19 51°20.102 2°36.938 16.5877 0.058504 0.354995 -2.871232
2007-03-27 09:38:19 51°20.091 2°36.9 16.6609 0.058504 0.354939 -2.871232
2007-03-27 09:39:21 51°20.077 2°36.884 16.6877 0.058504 0.354876 -2.871232
2007-03-27 09:40:20 51°20.061 2°36.887 16.7114 0.058607 0.355457 -2.871232
2007-03-27 09:41:19 51°20.047 2°36.909 16.6125 0.058607 0.355378 -2.871232
2007-03-27 09:42:19 51°20.038 2°36.937 16.6449 0.058607 0.355258 -2.871232
2007-03-27 09:43:19 51°20.033 2°36.959 16.6609 0.058607 0.355242 -2.871232
2007-03-27 09:44:19 51°20.03 2°36.978 16.5515 0.058607 0.355171 -2.871232
2007-03-27 09:45:19 51°20.028 2°36.993 16.58 0.058607 0.3551 -2.871232
2007-03-27 09:46:19 51°20.027 2°37.005 16.7191 0.058607 0.355028 -2.871232
2007-03-27 09:47:19 51°20.027 2°37.015 16.7574 0.05871 0.355593 -2.871232
2007-03-27 09:48:19 51°20.028 2°37.023 16.7794 0.05871 0.355521 -2.871232
2007-03-27 09:49:19 51°20.03 2°37.029 16.79 0.05871 0.35545 -2.871232
2007-03-27 09:50:19 51°20.032 2°37.034 16.7989 0.05871 0.355378 -2.871232
2007-03-27 09:51:19 51°20.035 2°37.038 16.8197 0.05871 0.355307 -2.871232
2007-03-27 09:52:19 51°20.035 2°37.043 16.87 0.058813 0.355887 -2.871232
2007-03-27 09:53:19 51°20.02 2°37.047 16.7753 0.05871 0.35518 -2.871232
2007-03-27 09:54:19 51°20.001 2°37.026 16.797 0.05871 0.355117 -2.871232
2007-03-27 09:55:19 51°20 2°36.986 16.7595 0.058813 0.355689 -2.871232
2007-03-27 09:56:19 51°20.013 2°36.956 16.8878 0.058813 0.355609 -2.871232
2007-03-27 09:57:19 51°20.03 2°36.938 16.9359 0.058813 0.355538 -2.871232
2007-03-27 09:58:19 51°20.045 2°36.925 16.9095 0.058813 0.355475 -2.871232
2007-03-27 09:59:19 51°20.059 2°36.918 16.8073 0.058813 0.355411 -2.871232
2007-03-27 10:00:19 51°20.069 2°36.917 16.775 0.058813 0.35534 -2.871232
2007-03-27 10:01:19 51°20.074 2°36.919 16.8293 0.058916 0.355919 -2.871232
2007-03-27 10:02:19 51°20.08 2°36.921 16.8531 0.058916 0.355848 -2.871232
2007-03-27 10:03:19 51°20.086 2°36.922 16.9641 0.058916 0.355784 -2.871232
2007-03-27 10:04:19 51°20.089 2°36.922 16.9751 0.058916 0.355721 -2.871232
2007-03-27 10:05:19 51°20.09 2°36.925 16.9741 0.059019 0.356284 -2.871232
2007-03-27 10:06:19 51°20.091 2°36.927 17.0392 0.058916 0.355571 -2.871232
2007-03-27 10:07:19 51°20.088 2°36.934 17.0068 0.059019 0.356157 -2.871232
2007-03-27 10:08:22 51°20.07 2°36.965 17.0538 0.059019 0.356054 -2.871232
2007-03-27 10:09:20 51°20.067 2°36.984 16.9758 0.059019 0.355983 -2.871232
2007-03-27 10:10:19 51°20.067 2°36.996 16.8456 0.059019 0.355911 -2.871232
2007-03-27 10:11:19 51°20.068 2°37.007 16.937 0.059019 0.355864 -2.871232
2007-03-27 10:12:19 51°20.069 2°37.017 16.9035 0.059122 0.356434 -2.871232
2007-03-27 10:13:19 51°20.07 2°37.024 16.8894 0.059122 0.356371 -2.871232
2007-03-27 10:14:19 51°20.072 2°37.029 17.0627 0.059122 0.356299 -2.871232
2007-03-27 10:15:19 51°20.074 2°37.032 16.8723 0.059122 0.35622 -2.871232
2007-03-27 10:16:19 51°20.077 2°37.033 17.0117 0.059122 0.356141 -2.871232
2007-03-27 10:17:19 51°20.08 2°37.034 16.8899 0.059122 0.356078 -2.871232
2007-03-27 10:18:19 51°20.083 2°37.034 16.9093 0.059122 0.355983 -2.871232
2007-03-27 10:19:19 51°20.086 2°37.035 16.954 0.059225 0.356544 -2.871232
2007-03-27 10:20:19 51°20.089 2°37.035 17.1154 0.059225 0.356465 -2.871232
2007-03-27 10:21:19 51°20.09 2°37.034 17.0126 0.059225 0.356386 -2.871232
2007-03-27 10:22:20 51°20.092 2°37.033 16.9717 0.059225 0.356315 -2.871232
2007-03-27 10:23:19 51°20.092 2°37.031 16.918 0.059225 0.356236 -2.871232
2007-03-27 10:24:19 51°20.092 2°37.029 17.1241 0.059225 0.356165 -2.871232
2007-03-27 10:25:19 51°20.091 2°37.028 16.9938 0.059225 0.356094 -2.871232
2007-03-27 10:26:19 51°20.089 2°37.028 17.1076 0.059327 0.35667 -2.871232
2007-03-27 10:27:19 51°20.088 2°37.029 17.1372 0.059327 0.356607 -2.871232
2007-03-27 10:28:19 51°20.087 2°37.029 17.1798 0.059327 0.356544 -2.871232
2007-03-27 10:29:19 51°20.085 2°37.03 17.1092 0.059327 0.356473 -2.871232
2007-03-27 10:30:19 51°20.085 2°37.03 17.071 0.059327 0.35641 -2.871232
2007-03-27 10:31:19 51°20.083 2°37.03 17.1128 0.059327 0.356339 -2.871232
2007-03-27 10:32:19 51°20.082 2°37.03 17.1609 0.05943 0.356914 -2.871232
2007-03-27 10:33:19 51°20.081 2°37.029 17.0483 0.05943 0.356851 -2.871232
2007-03-27 10:34:19 51°20.079 2°37.028 17.2158 0.05943 0.356788 -2.871232
2007-03-27 10:35:19 51°20.077 2°37.026 17.1904 0.05943 0.356717 -2.871232
2007-03-27 10:36:19 51°20.075 2°37.024 17.0313 0.05943 0.356654 -2.871232
2007-03-27 10:37:19 51°20.073 2°37.023 17.0723 0.05943 0.356575 -2.871232
2007-03-27 10:38:19 51°20.073 2°37.022 17.2416 0.059533 0.357142 -2.871232
2007-03-27 10:39:19 51°20.071 2°37.019 17.2301 0.059533 0.357071 -2.871232
2007-03-27 10:40:19 51°20.07 2°37.017 17.2169 0.059533 0.357 -2.871232
2007-03-27 10:41:19 51°20.068 2°37.014 17.1092 0.059533 0.356922 -2.871232
2007-03-27 10:42:19 51°20.066 2°37.012 17.1502 0.059533 0.356843 -2.871232
2007-03-27 10:43:19 51°20.065 2°37.01 17.2197 0.059533 0.356756 -2.871232
2007-03-27 10:44:19 51°20.063 2°37.006 17.1861 0.059533 0.356686 -2.871232
2007-03-27 10:45:19 51°20.062 2°37.003 17.2333 0.059636 0.357236 -2.871232
2007-03-27 10:46:19 51°20.059 2°36.999 17.2641 0.059636 0.357165 -2.871232
2007-03-27 10:47:19 51°20.056 2°36.995 17.1733 0.059636 0.357079 -2.871232
2007-03-27 10:48:19 51°20.052 2°36.989 17.2182 0.059636 0.357008 -2.871232
2007-03-27 10:49:19 51°20.049 2°36.984 17.1724 0.059636 0.356921 -2.871232
2007-03-27 10:50:19 51°20.044 2°36.978 17.2509 0.059739 0.35751 -2.871232
2007-03-27 10:51:19 51°20.04 2°36.973 17.1958 0.059739 0.357416 -2.871232
2007-03-27 10:52:19 51°20.036 2°36.967 17.2238 0.059739 0.357353 -2.871232
2007-03-27 10:53:19 51°20.031 2°36.96 17.2854 0.059739 0.357267 -2.871232
2007-03-27 10:54:19 51°20.027 2°36.952 17.214 0.059739 0.357219 -2.871232
2007-03-27 10:55:19 51°20.023 2°36.944 17.2899 0.059739 0.357149 -2.871232
2007-03-27 10:56:19 51°20.02 2°36.936 17.3231 0.059842 0.357721 -2.871232
2007-03-27 10:57:19 51°20.016 2°36.927 17.373 0.059842 0.357659 -2.871232
2007-03-27 10:58:19 51°20.013 2°36.918 17.3609 0.059842 0.357627 -2.871232
2007-03-27 10:59:19 51°20.009 2°36.908 17.3587 0.059842 0.357533 -2.871232
2007-03-27 11:00:19 51°20.006 2°36.899 17.2593 0.059842 0.357462 -2.871232
2007-03-27 11:01:19 51°20.002 2°36.89 17.3728 0.059945 0.358042 -2.871232
2007-03-27 11:02:19 51°19.998 2°36.882 17.2348 0.059842 0.357344 -2.871232
2007-03-27 11:03:19 51°19.994 2°36.873 17.2761 0.059945 0.357916 -2.871232
2007-03-27 11:04:19 51°19.99 2°36.864 17.269 0.059945 0.357854 -2.871232
2007-03-27 11:05:19 51°19.985 2°36.854 17.2541 0.059945 0.357783 -2.871232
2007-03-27 11:06:19 51°19.981 2°36.845 17.3246 0.059945 0.357744 -2.871232
2007-03-27 11:07:19 51°19.976 2°36.834 17.3428 0.059945 0.357673 -2.871232
2007-03-27 11:08:19 51°19.971 2°36.824 17.3349 0.060048 0.358244 -2.871232
2007-03-27 11:09:19 51°19.966 2°36.814 17.4399 0.060048 0.358182 -2.871232
2007-03-27 11:10:19 51°19.961 2°36.803 17.3892 0.060048 0.358127 -2.871232
2007-03-27 11:11:19 51°19.968 2°36.779 17.3578 0.060048 0.35804 -2.871232
2007-03-27 11:12:19 51°20.004 2°36.771 17.3269 0.060048 0.358001 -2.871232
2007-03-27 11:13:19 51°20.029 2°36.783 17.3481 0.060048 0.357923 -2.871232
2007-03-27 11:14:19 51°20.045 2°36.792 17.4141 0.060048 0.357844 -2.871232
2007-03-27 11:15:19 51°20.056 2°36.793 17.5312 0.060151 0.358439 -2.871232
2007-03-27 11:16:19 51°20.064 2°36.789 17.5427 0.060151 0.358384 -2.871232
2007-03-27 11:17:19 51°20.067 2°36.778 17.5462 0.060151 0.358337 -2.871232
2007-03-27 11:18:19 51°20.066 2°36.764 17.4121 0.060151 0.358305 -2.871232
2007-03-27 11:19:19 51°20.064 2°36.75 17.534 0.060151 0.358235 -2.871232
2007-03-27 11:20:19 51°20.062 2°36.736 17.4966 0.060151 0.358195 -2.871232
2007-03-27 11:21:19 51°20.058 2°36.722 17.4252 0.060151 0.35814 -2.871232
2007-03-27 11:22:19 51°20.054 2°36.707 17.4456 0.060254 0.358734 -2.871232
2007-03-27 11:23:19 51°20.049 2°36.693 17.456 0.060151 0.358031 -2.871232
2007-03-27 11:24:19 51°20.044 2°36.68 17.4948 0.060254 0.358617 -2.871232
2007-03-27 11:25:19 51°20.039 2°36.666 17.5624 0.060254 0.358554 -2.871232
2007-03-27 11:26:19 51°20.034 2°36.652 17.4644 0.060254 0.358499 -2.871232
2007-03-27 11:27:19 51°20.028 2°36.639 17.5817 0.060254 0.358421 -2.871232
2007-03-27 11:28:19 51°20.022 2°36.625 17.5638 0.060254 0.358374 -2.871232
2007-03-27 11:29:19 51°20.017 2°36.611 17.4735 0.060254 0.358311 -2.871232
2007-03-27 11:30:19 51°20.011 2°36.597 17.5528 0.060254 0.358248 -2.871232
2007-03-27 11:31:19 51°20.005 2°36.582 17.4623 0.060357 0.358802 -2.871232
2007-03-27 11:32:19 51°19.999 2°36.568 17.5179 0.060357 0.358739 -2.871232
2007-03-27 11:33:19 51°19.993 2°36.555 17.4448 0.060254 0.358053 -2.871232
2007-03-27 11:34:19 51°19.987 2°36.539 17.5102 0.060357 0.358622 -2.871232
2007-03-27 11:35:19 51°19.987 2°36.513 17.5051 0.060357 0.358575 -2.871232
2007-03-27 11:36:19 51°20.009 2°36.454 17.5116 0.060357 0.358505 -2.871232
2007-03-27 11:37:19 51°20.049 2°36.378 17.5723 0.060357 0.358458 -2.871232
2007-03-27 11:38:19 51°20.084 2°36.314 17.6697 0.060357 0.358395 -2.871232
2007-03-27 11:39:19 51°20.108 2°36.267 17.6941 0.060459 0.35898 -2.871232
2007-03-27 11:40:19 51°20.126 2°36.23 17.6536 0.060357 0.358286 -2.871232
2007-03-27 11:41:19 51°20.137 2°36.2 17.733 0.060459 0.358878 -2.871232
2007-03-27 11:42:19 51°20.144 2°36.175 17.7383 0.060459 0.358807 -2.871232
2007-03-27 11:43:19 51°20.154 2°36.151 17.5183 0.060459 0.358753 -2.871232
2007-03-27 11:44:19 51°20.222 2°36.18 17.5216 0.060459 0.358753 -2.871232
2007-03-27 11:45:19 51°20.193 2°36.302 17.6436 0.060459 0.358659 -2.871232
2007-03-27 11:46:19 51°20.111 2°36.448 17.5456 0.060459 0.358589 -2.871232
2007-03-27 11:47:19 51°20.021 2°36.585 17.672 0.060459 0.358581 -2.871232
2007-03-27 11:48:19 51°20.007 2°36.684 17.6881 0.060459 0.35855 -2.871232
2007-03-27 11:49:19 51°20.032 2°36.743 17.7184 0.060459 0.358456 -2.871232
2007-03-27 11:50:19 51°20.06 2°36.788 17.6909 0.060459 0.358417 -2.871232
2007-03-27 11:51:19 51°20.087 2°36.834 17.7454 0.060459 0.35837 -2.871232
2007-03-27 11:52:19 51°20.109 2°36.851 17.7472 0.060562 0.358992 -2.871232
2007-03-27 11:53:23 51°20.093 2°36.834 17.7546 0.060562 0.35886 -2.871232
2007-03-27 11:54:22 51°20.099 2°36.811 17.7664 0.060562 0.358797 -2.871232
2007-03-27 11:55:23 51°20.084 2°36.821 17.7497 0.060562 0.358735 -2.871232
2007-03-27 11:56:21 51°20.075 2°36.824 17.6326 0.060562 0.358657 -2.871232
2007-03-27 11:57:19 51°20.066 2°36.824 17.7576 0.060562 0.358571 -2.871232
2007-03-27 11:58:19 51°20.058 2°36.824 17.7493 0.060562 0.358493 -2.871232
2007-03-27 11:59:19 51°20.051 2°36.834 17.6151 0.060562 0.358415 -2.871232
2007-03-27 12:00:19 51°20.046 2°36.845 17.7433 0.060562 0.358322 -2.871232
2007-03-27 12:01:19 51°20.043 2°36.853 17.6692 0.060562 0.358244 -2.871232
2007-03-27 12:02:19 51°20.042 2°36.858 17.7848 0.060665 0.358787 -2.871232
2007-03-27 12:03:19 51°20.041 2°36.863 17.6353 0.060665 0.358702 -2.871232
2007-03-27 12:04:19 51°20.041 2°36.867 17.8171 0.060562 0.35798 -2.871232
2007-03-27 12:05:19 51°20.04 2°36.867 17.7981 0.060665 0.358507 -2.871232
2007-03-27 12:06:19 51°20.041 2°36.866 17.6683 0.060665 0.358414 -2.871232
2007-03-27 12:07:19 51°20.042 2°36.865 17.6633 0.060665 0.358298 -2.871232
2007-03-27 12:08:19 51°20.043 2°36.865 17.7538 0.060665 0.358197 -2.871232
2007-03-27 12:09:19 51°20.044 2°36.865 17.6868 0.060768 0.358716 -2.871232
2007-03-27 12:10:19 51°20.044 2°36.866 17.8356 0.060768 0.358615 -2.871232
2007-03-27 12:11:19 51°20.044 2°36.867 17.8697 0.060665 0.357863 -2.871232
2007-03-27 12:12:19 51°20.043 2°36.869 17.6961 0.060768 0.358382 -2.871232
2007-03-27 12:13:19 51°20.043 2°36.87 17.8773 0.060768 0.358258 -2.871232
2007-03-27 12:14:19 51°20.043 2°36.87 17.6795 0.060768 0.35815 -2.871232
2007-03-27 12:15:19 51°20.045 2°36.869 17.8157 0.060768 0.358033 -2.871232
2007-03-27 12:16:19 51°20.045 2°36.867 17.7377 0.060768 0.357902 -2.871232
2007-03-27 12:17:19 51°20.047 2°36.864 17.8161 0.060768 0.357786 -2.871232
2007-03-27 12:18:19 51°20.049 2°36.86 17.8833 0.060768 0.35767 -2.871232
2007-03-27 12:19:19 51°20.051 2°36.857 17.7389 0.060871 0.35818 -2.871232
2007-03-27 12:20:19 51°20.053 2°36.856 17.8328 0.060871 0.358057 -2.871232
2007-03-27 12:21:19 51°20.054 2°36.863 17.8037 0.060871 0.357933 -2.871232
2007-03-27 12:22:19 51°20.056 2°36.875 17.9194 0.060871 0.35781 -2.871232
2007-03-27 12:23:19 51°20.058 2°36.88 17.8946 0.060871 0.357702 -2.871232
2007-03-27 12:24:19 51°20.061 2°36.881 17.8403 0.060974 0.358195 -2.871232
2007-03-27 12:25:19 51°20.065 2°36.877 17.8037 0.060974 0.35808 -2.871232
2007-03-27 12:26:19 51°20.068 2°36.872 17.8627 0.060974 0.357957 -2.871232
2007-03-27 12:27:19 51°20.071 2°36.867 17.8183 0.060974 0.357849 -2.871232
2007-03-27 12:28:23 51°20.079 2°36.882 17.7502 0.060974 0.357664 -2.871232
2007-03-27 12:29:21 51°20.082 2°36.888 17.8585 0.060974 0.357595 -2.871232
2007-03-27 12:30:19 51°20.083 2°36.89 17.8275 0.061077 0.358095 -2.871232
2007-03-27 12:31:19 51°20.084 2°36.887 17.9477 0.061077 0.357972 -2.871232
2007-03-27 12:32:19 51°20.085 2°36.883 17.7852 0.061077 0.357842 -2.871232
2007-03-27 12:33:19 51°20.086 2°36.882 17.869 0.061077 0.357727 -2.871232
2007-03-27 12:34:19 51°20.087 2°36.882 17.9011 0.061077 0.357619 -2.871232
2007-03-27 12:35:19 51°20.087 2°36.884 17.8942 0.061077 0.357512 -2.871232
2007-03-27 12:36:19 51°20.086 2°36.884 17.8089 0.06118 0.358035 -2.871232
2007-03-27 12:37:19 51°20.086 2°36.885 17.8252 0.06118 0.357935 -2.871232
2007-03-27 12:38:19 51°20.086 2°36.886 17.9329 0.06118 0.357843 -2.871232
2007-03-27 12:39:19 51°20.085 2°36.887 17.8714 0.06118 0.357743 -2.871232
2007-03-27 12:40:19 51°20.087 2°36.893 17.7759 0.06118 0.357667 -2.871232
2007-03-27 12:41:23 51°20.094 2°36.916 17.8785 0.061283 0.358158 -2.871232
2007-03-27 12:42:21 51°20.097 2°36.918 17.9048 0.06118 0.35746 -2.871232
2007-03-27 12:43:19 51°20.097 2°36.912 17.8524 0.061283 0.358005 -2.871232
2007-03-27 12:44:19 51°20.093 2°36.896 17.9773 0.061283 0.357898 -2.871232
2007-03-27 12:45:19 51°20.088 2°36.874 17.9042 0.061283 0.357829 -2.871232
2007-03-27 12:46:19 51°20.087 2°36.864 17.9178 0.061283 0.357729 -2.871232
2007-03-27 12:47:19 51°20.083 2°36.854 18.003 0.061283 0.35763 -2.871232
2007-03-27 12:48:19 51°20.078 2°36.837 17.96 0.061386 0.358166 -2.871232
2007-03-27 12:49:20 51°20.077 2°36.84 17.9249 0.061386 0.358128 -2.871232
2007-03-27 12:50:22 51°20.079 2°36.85 17.7859 0.061386 0.357998 -2.871232
2007-03-27 12:51:20 51°20.08 2°36.853 17.9893 0.061386 0.357907 -2.871232
2007-03-27 12:52:20 51°20.083 2°36.864 17.8253 0.061386 0.357807 -2.871232
2007-03-27 12:53:19 51°20.085 2°36.866 17.8113 0.061386 0.357723 -2.871232
2007-03-27 12:54:19 51°20.088 2°36.871 17.8098 0.061386 0.35764 -2.871232
2007-03-27 12:55:19 51°20.091 2°36.873 17.8278 0.061386 0.357548 -2.871232
2007-03-27 12:56:19 51°20.092 2°36.873 17.9167 0.061488 0.358083 -2.871232
2007-03-27 12:57:19 51°20.09 2°36.87 17.9463 0.061488 0.357992 -2.871232
2007-03-27 12:58:19 51°20.085 2°36.86 17.994 0.061488 0.357908 -2.871232
2007-03-27 12:59:19 51°20.077 2°36.836 17.9079 0.061488 0.357809 -2.871232
2007-03-27 13:00:19 51°20.069 2°36.809 17.8715 0.061488 0.357725 -2.871232
2007-03-27 13:01:19 51°20.061 2°36.78 17.8583 0.061488 0.357634 -2.871232
2007-03-27 13:02:19 51°20.055 2°36.746 17.8725 0.061591 0.358161 -2.871232
2007-03-27 13:03:19 51°20.063 2°36.696 17.8989 0.061591 0.358077 -2.871232
2007-03-27 13:04:19 51°20.103 2°36.676 17.8645 0.061591 0.357971 -2.871232
2007-03-27 13:05:19 51°20.121 2°36.722 17.9067 0.061591 0.357872 -2.871232
2007-03-27 13:06:19 51°20.107 2°36.752 17.895 0.061591 0.357788 -2.871232
2007-03-27 13:07:19 51°20.089 2°36.765 17.9195 0.061591 0.357689 -2.871232
2007-03-27 13:08:19 51°20.075 2°36.769 17.972 0.061591 0.357591 -2.871232
2007-03-27 13:09:19 51°20.062 2°36.764 17.96 0.061694 0.358139 -2.871232
2007-03-27 13:10:19 51°20.049 2°36.755 17.8839 0.061694 0.358041 -2.871232
2007-03-27 13:11:19 51°20.036 2°36.743 17.9665 0.061694 0.357972 -2.871232
2007-03-27 13:12:19 51°20.024 2°36.749 18.0385 0.061694 0.357904 -2.871232
2007-03-27 13:13:19 51°20.025 2°36.777 17.9872 0.061694 0.35779 -2.871232
2007-03-27 13:14:19 51°20.043 2°36.807 17.9408 0.061797 0.358361 -2.871232
2007-03-27 13:15:19 51°20.064 2°36.795 17.9318 0.061694 0.357616 -2.871232
2007-03-27 13:16:19 51°20.073 2°36.762 17.9252 0.061694 0.357472 -2.871232
2007-03-27 13:17:19 51°20.075 2°36.724 17.9092 0.061797 0.357921 -2.871232
2007-03-27 13:18:19 51°20.076 2°36.686 17.9201 0.061797 0.357944 -2.871232
2007-03-27 13:19:19 51°20.073 2°36.649 17.9314 0.061797 0.357891 -2.871232
2007-03-27 13:20:19 51°20.071 2°36.613 17.9288 0.061797 0.357815 -2.871232
2007-03-27 13:21:19 51°20.108 2°36.617 17.9542 0.061797 0.357763 -2.871232
2007-03-27 13:22:19 51°20.088 2°36.719 17.9971 0.061797 0.357642 -2.871232
2007-03-27 13:23:19 51°20.02 2°36.976 17.9421 0.061797 0.357574 -2.871232
2007-03-27 13:24:19 51°19.881 2°37.241 17.9879 0.0619 0.358045 -2.871232
2007-03-27 13:25:19 51°19.676 2°37.391 17.9582 0.0619 0.357962 -2.871232
2007-03-27 13:26:19 51°19.459 2°37.512 17.9856 0.0619 0.357916 -2.871232
2007-03-27 13:27:19 51°19.243 2°37.633 17.9715 0.0619 0.357833 -2.871232
2007-03-27 13:28:19 51°19.026 2°37.764 17.9964 0.062003 0.358523 -2.871232
2007-03-27 13:29:19 51°18.81 2°37.897 17.9955 0.062003 0.358485 -2.871232
2007-03-27 13:30:19 51°18.594 2°38.032 18.004 0.062003 0.35819 -2.871232
2007-03-27 13:31:19 51°18.379 2°38.168 17.9786 0.062003 0.35813 -2.871232
2007-03-27 13:32:19 51°18.163 2°38.302 18.0108 0.062003 0.358055 -2.871232
2007-03-27 13:33:19 51°17.948 2°38.442 18.0045 0.062003 0.357979 -2.871232
2007-03-27 13:34:19 51°17.73 2°38.576 18.0123 0.062003 0.357911 -2.871232
2007-03-27 13:35:19 51°17.513 2°38.711 17.9903 0.062003 0.357851 -2.871232
2007-03-27 13:36:19 51°17.3 2°38.842 17.9883 0.062106 0.358404 -2.871232
2007-03-27 13:37:19 51°17.092 2°38.972 17.9949 0.062106 0.358283 -2.871232
2007-03-27 13:38:19 51°16.89 2°39.104 18.0149 0.062106 0.358208 -2.871232
2007-03-27 13:39:19 51°16.681 2°39.244 18.03 0.062106 0.358065 -2.871232
2007-03-27 13:40:19 51°16.468 2°39.371 18.0671 0.062106 0.357997 -2.871232
2007-03-27 13:41:19 51°16.254 2°39.501 18.0106 0.062106 0.357689 -2.871232
2007-03-27 13:42:19 51°16.038 2°39.632 18.0203 0.062209 0.358428 -2.871232
2007-03-27 13:43:19 51°15.819 2°39.766 18.0466 0.062209 0.358383 -2.871232
2007-03-27 13:44:19 51°15.601 2°39.902 18.0334 0.062209 0.3583 -2.871232
2007-03-27 13:45:19 51°15.381 2°40.038 18.0473 0.062209 0.35821 -2.871232
2007-03-27 13:46:19 51°15.171 2°40.196 18.0251 0.062209 0.358127 -2.871232
2007-03-27 13:47:19 51°14.964 2°40.357 18.0699 0.062209 0.358067 -2.871232
2007-03-27 13:48:19 51°14.777 2°40.556 18.0285 0.062312 0.358604 -2.871232
2007-03-27 13:49:19 51°14.651 2°40.831 18.0442 0.062312 0.358506 -2.871232
2007-03-27 13:50:19 51°14.571 2°41.147 18.0567 0.062312 0.358423 -2.871232
2007-03-27 13:51:19 51°14.528 2°41.478 18.0513 0.062312 0.358333 -2.871232
2007-03-27 13:52:19 51°14.514 2°41.813 18.0193 0.062312 0.358288 -2.871232
2007-03-27 13:53:19 51°14.451 2°42.135 18.0455 0.062312 0.358205 -2.871232
2007-03-27 13:54:19 51°14.337 2°42.431 18.0661 0.062312 0.3581 -2.871232
2007-03-27 13:55:19 51°14.239 2°42.736 18.0879 0.062415 0.358666 -2.871232
2007-03-27 13:56:19 51°14.223 2°43.062 18.0345 0.062415 0.358576 -2.871232
2007-03-27 13:57:19 51°14.258 2°43.386 18.0379 0.062415 0.358486 -2.871232
2007-03-27 13:58:19 51°14.29 2°43.71 18.0512 0.062415 0.358433 -2.871232
2007-03-27 13:59:19 51°14.328 2°44.031 18.0629 0.062415 0.358351 -2.871232
2007-03-27 14:00:19 51°14.362 2°44.356 18.0873 0.062415 0.358268 -2.871232
2007-03-27 14:01:19 51°14.392 2°44.682 18.0734 0.062415 0.358201 -2.871232
2007-03-27 14:02:19 51°14.421 2°45.007 18.0721 0.062415 0.358126 -2.871232
2007-03-27 14:03:19 51°14.451 2°45.327 18.0744 0.062517 0.358645 -2.871232
2007-03-27 14:04:19 51°14.478 2°45.647 18.0752 0.062517 0.358578 -2.871232
2007-03-27 14:05:19 51°14.494 2°45.986 18.077 0.062517 0.358496 -2.871232
2007-03-27 14:06:19 51°14.516 2°46.323 18.0829 0.062517 0.358421 -2.871232
2007-03-27 14:07:19 51°14.537 2°46.652 18.101 0.062517 0.358353 -2.871232
2007-03-27 14:08:19 51°14.558 2°46.979 18.102 0.062517 0.358271 -2.871232
2007-03-27 14:09:19 51°14.58 2°47.304 18.0963 0.06262 0.35882 -2.871232
2007-03-27 14:10:19 51°14.601 2°47.629 18.101 0.06262 0.358738 -2.871232
2007-03-27 14:11:19 51°14.621 2°47.955 18.1306 0.06262 0.358678 -2.871232
2007-03-27 14:12:19 51°14.642 2°48.283 18.1347 0.06262 0.358595 -2.871232
2007-03-27 14:13:19 51°14.662 2°48.611 18.1241 0.06262 0.358506 -2.871232
2007-03-27 14:14:19 51°14.681 2°48.94 18.1364 0.06262 0.358431 -2.871232
2007-03-27 14:15:19 51°14.702 2°49.267 18.1361 0.062723 0.358964 -2.871232
2007-03-27 14:16:19 51°14.72 2°49.594 18.1453 0.062723 0.35889 -2.871232
2007-03-27 14:17:19 51°14.74 2°49.923 18.1419 0.062723 0.358807 -2.871232
2007-03-27 14:18:19 51°14.759 2°50.25 18.1568 0.062723 0.358725 -2.871232
2007-03-27 14:19:19 51°14.775 2°50.575 18.1487 0.062723 0.358643 -2.871232
2007-03-27 14:20:19 51°14.781 2°50.903 18.1499 0.062826 0.359198 -2.871232
2007-03-27 14:21:19 51°14.788 2°51.228 18.1668 0.062826 0.359123 -2.871232
2007-03-27 14:22:19 51°14.794 2°51.554 18.1771 0.062723 0.358434 -2.871232
2007-03-27 14:23:19 51°14.8 2°51.88 18.1685 0.062826 0.358966 -2.871232
2007-03-27 14:24:19 51°14.806 2°52.207 18.1612 0.062826 0.358892 -2.871232
2007-03-27 14:25:19 51°14.813 2°52.534 18.1664 0.062826 0.358832 -2.871232
2007-03-27 14:26:19 51°14.82 2°52.863 18.1785 0.062826 0.35875 -2.871232
2007-03-27 14:27:19 51°14.829 2°53.199 18.1915 0.062929 0.359275 -2.871232
2007-03-27 14:28:19 51°14.818 2°53.539 18.204 0.062826 0.358594 -2.871232
2007-03-27 14:29:19 51°14.751 2°53.859 18.1972 0.062929 0.359133 -2.871232
2007-03-27 14:30:19 51°14.676 2°54.155 18.2268 0.062929 0.359043 -2.871232
2007-03-27 14:31:19 51°14.583 2°54.418 18.2544 0.062929 0.358969 -2.871232
2007-03-27 14:32:19 51°14.493 2°54.68 18.2379 0.062929 0.358887 -2.871232
2007-03-27 14:33:19 51°14.4 2°54.94 18.2794 0.062929 0.35882 -2.871232
2007-03-27 14:34:19 51°14.304 2°55.201 18.2554 0.062929 0.358753 -2.871232
2007-03-27 14:35:23 51°14.16 2°55.388 18.3158 0.063032 0.359299 -2.871232
2007-03-27 14:36:22 51°14.034 2°55.479 18.3442 0.063032 0.359217 -2.871232
2007-03-27 14:37:20 51°13.938 2°55.546 18.378 0.063032 0.359172 -2.871232
2007-03-27 14:38:19 51°13.854 2°55.616 18.4045 0.063032 0.359083 -2.871232
2007-03-27 14:39:19 51°13.737 2°55.756 18.42 0.063032 0.359016 -2.871232
2007-03-27 14:40:19 51°13.664 2°55.895 18.4419 0.063032 0.358934 -2.871232
2007-03-27 14:41:19 51°13.627 2°55.99 18.4622 0.063135 0.359472 -2.871232
2007-03-27 14:42:19 51°13.607 2°56.065 18.477 0.063032 0.358778 -2.871232
2007-03-27 14:43:19 51°13.602 2°56.098 18.4968 0.063135 0.359294 -2.871232